CheckWX is a tool to help pilots better visualize weather data.  It is not intended as a substitute for an official pre-flight weather briefing.

22:58:25 UTC

WSSS TAF
Singapore Changi Airport Airport
Singapore, Singapore
TAF WSSS 091700Z 0918/1100 13007KT 9999 FEW015 SCT020 TEMPO 1006/1009 3000 TSRA FEW012CB BKN015

Jul-9@
18:00 UTC

Jul-9 @ 18:00 UTC

Jul-11@
00:00 UTC

Jul-11 @ 00:00 UTC

TAF WSSS 091700Z 0918/1100 13007KT 9999 FEW015 SCT020
Wind
  • 130° at 7 KTS
Cloud Levels
  • Few at 1,500' AGL
  • Scattered at 2,000' AGL

Jul-10@
06:00 UTC

Jul-10 @ 06:00 UTC

Jul-10@
09:00 UTC

Jul-10 @ 09:00 UTC

TEMPO 1006/1009 3000 TSRA FEW012CB BKN015

Expired

Conditions
Thunderstorm, Rain
Cloud Levels
  • Few at 1,200' AGL
  • Broken at 1,500' AGL